Time;durP1;ratioP1;P1;durP2;ratioP2;P2;SDS_P1;SDS_P2;PMS_P1;PMS_P2;Temp;Humidity;BMP_temperature;BMP_pressure;BME280_temperature;BME280_humidity;BME280_pressure;Samples;Min_cycle;Max_cycle;Signal;HPM_P1;HPM_P2
2022/12/19 00:00:34;;;;;;;6.82;4.60;;;8.20;96.70;;;;;;5070652;28;20044;-72
2022/12/19 00:03:03;;;;;;;4.97;3.75;;;8.20;96.70;;;;;;5061824;28;20800;-75
2022/12/19 00:05:35;;;;;;;5.00;3.60;;;8.10;96.70;;;;;;5063166;28;20174;-73
2022/12/19 00:08:04;;;;;;;7.15;3.40;;;8.10;96.70;;;;;;5077195;28;20101;-74
2022/12/19 00:10:52;;;;;;;4.95;2.92;;;8.00;96.70;;;;;;5074118;28;20519;-74
2022/12/19 00:13:20;;;;;;;7.28;3.75;;;8.00;96.70;;;;;;5073322;28;20049;-73
2022/12/19 00:15:48;;;;;;;5.07;3.72;;;8.00;96.70;;;;;;5067154;28;20074;-74
2022/12/19 00:18:19;;;;;;;6.57;3.60;;;8.10;96.70;;;;;;5069142;28;20113;-74
2022/12/19 00:20:54;;;;;;;6.18;4.65;;;8.00;96.70;;;;;;5071596;28;20117;-74
2022/12/19 00:23:23;;;;;;;7.32;4.47;;;8.00;96.70;;;;;;5062210;28;20050;-73
2022/12/19 00:25:51;;;;;;;6.85;4.70;;;8.00;96.70;;;;;;5063311;28;20119;-73
2022/12/19 00:28:20;;;;;;;8.27;5.40;;;8.00;96.70;;;;;;5060657;28;20143;-73
2022/12/19 00:30:48;;;;;;;7.80;5.82;;;8.00;96.70;;;;;;5062072;28;20498;-73
2022/12/19 00:33:19;;;;;;;7.38;5.47;;;8.00;96.70;;;;;;5068866;28;20808;-73
2022/12/19 00:35:47;;;;;;;8.60;5.15;;;7.90;96.70;;;;;;5062487;28;20556;-73
2022/12/19 00:38:15;;;;;;;8.77;6.22;;;7.90;96.70;;;;;;5067335;28;20046;-74
2022/12/19 00:40:43;;;;;;;6.35;5.15;;;7.80;96.70;;;;;;5071520;28;20044;-73
2022/12/19 00:43:11;;;;;;;9.48;5.35;;;7.80;96.70;;;;;;5082065;28;20044;-73
2022/12/19 00:45:40;;;;;;;12.95;6.03;;;7.80;96.70;;;;;;5063857;28;20078;-73
2022/12/19 00:48:08;;;;;;;8.05;5.72;;;7.80;96.70;;;;;;5063299;28;20049;-74
2022/12/19 00:50:40;;;;;;;9.30;6.43;;;7.80;96.70;;;;;;5080965;28;20523;-74
2022/12/19 00:53:08;;;;;;;9.32;6.15;;;7.70;96.70;;;;;;5080954;28;20051;-73
2022/12/19 00:55:38;;;;;;;7.45;5.85;;;7.70;96.70;;;;;;5068909;28;20056;-74
2022/12/19 00:58:06;;;;;;;10.70;6.72;;;7.70;96.70;;;;;;5079801;28;20048;-73
2022/12/19 01:00:34;;;;;;;10.82;6.53;;;7.60;96.70;;;;;;5073720;28;20344;-73
2022/12/19 01:03:02;;;;;;;8.05;5.90;;;7.70;96.70;;;;;;5079020;28;20119;-73
2022/12/19 01:05:32;;;;;;;12.27;5.43;;;7.70;96.70;;;;;;5064846;28;20033;-73
2022/12/19 01:08:02;;;;;;;7.25;5.75;;;7.70;96.70;;;;;;5063910;28;20063;-73
2022/12/19 01:10:30;;;;;;;7.72;5.28;;;7.80;96.70;;;;;;5061892;28;20083;-73
2022/12/19 01:12:59;;;;;;;7.90;5.00;;;7.80;96.70;;;;;;5069785;28;20497;-73
2022/12/19 01:15:27;;;;;;;10.07;4.70;;;7.70;96.70;;;;;;5056333;28;20048;-73
2022/12/19 01:17:58;;;;;;;8.40;6.07;;;7.70;96.70;;;;;;5071170;28;20490;-73
2022/12/19 01:20:26;;;;;;;8.30;5.38;;;7.70;96.70;;;;;;5066315;28;20458;-73
2022/12/19 01:22:57;;;;;;;7.30;5.38;;;7.50;96.70;;;;;;5062480;28;20072;-73
2022/12/19 01:25:28;;;;;;;9.20;4.78;;;7.70;96.70;;;;;;5067311;28;20044;-73
2022/12/19 01:27:56;;;;;;;6.43;5.10;;;7.70;96.70;;;;;;5066673;28;20091;-74
2022/12/19 01:30:25;;;;;;;7.00;5.13;;;7.80;96.70;;;;;;5066214;28;20045;-73
2022/12/19 01:32:56;;;;;;;8.30;5.10;;;7.80;96.70;;;;;;5064313;28;20395;-73
2022/12/19 01:35:27;;;;;;;9.40;6.03;;;7.90;96.70;;;;;;5063971;28;20044;-74
2022/12/19 01:37:55;;;;;;;7.93;4.88;;;7.90;96.70;;;;;;5065158;28;20048;-73
2022/12/19 01:40:37;;;;;;;6.95;5.38;;;7.90;96.70;;;;;;5066460;28;20841;-74
2022/12/19 01:43:05;;;;;;;8.82;5.88;;;7.90;96.70;;;;;;5054018;28;20516;-73
2022/12/19 01:45:35;;;;;;;8.63;5.82;;;7.90;96.70;;;;;;5084327;28;20417;-73
2022/12/19 01:48:21;;;;;;;7.43;5.05;;;7.70;96.70;;;;;;5085487;28;20048;-74
2022/12/19 01:50:56;;;;;;;6.32;5.18;;;7.80;96.70;;;;;;5084023;28;20056;-74
2022/12/19 01:53:34;;;;;;;7.05;5.00;;;7.70;96.70;;;;;;5077304;28;20044;-73
2022/12/19 01:56:09;;;;;;;6.45;4.82;;;7.70;96.70;;;;;;5063684;28;20048;-74
2022/12/19 01:58:42;;;;;;;7.15;5.18;;;7.80;96.70;;;;;;5064658;28;20048;-74
2022/12/19 02:01:10;;;;;;;6.28;4.93;;;7.80;96.70;;;;;;5070982;28;20032;-74
2022/12/19 02:03:39;;;;;;;6.97;5.10;;;7.80;96.70;;;;;;5066347;28;20044;-74
2022/12/19 02:06:11;;;;;;;6.93;5.10;;;7.90;96.70;;;;;;5063325;28;20052;-74
2022/12/19 02:08:40;;;;;;;6.30;4.75;;;7.90;96.70;;;;;;5076443;28;20052;-73
2022/12/19 02:11:09;;;;;;;7.22;4.93;;;7.80;96.70;;;;;;5079559;28;20167;-73
2022/12/19 02:13:41;;;;;;;9.48;4.97;;;7.70;96.70;;;;;;5078107;28;20140;-73
2022/12/19 02:16:20;;;;;;;7.00;4.70;;;7.70;96.70;;;;;;5084145;28;20048;-74
2022/12/19 02:19:01;;;;;;;5.95;5.28;;;7.80;96.70;;;;;;5065228;28;20041;-74
2022/12/19 02:21:44;;;;;;;7.75;4.82;;;7.80;96.70;;;;;;5064868;28;20045;-74
2022/12/19 02:24:41;;;;;;;6.60;4.85;;;7.80;96.70;;;;;;5080875;28;20044;-73
2022/12/19 02:27:55;;;;;;;7.00;5.13;;;7.80;96.70;;;;;;5084521;28;20043;-73
2022/12/19 02:30:48;;;;;;;7.85;4.50;;;7.80;96.70;;;;;;5001261;28;20049;-74
2022/12/19 02:33:24;;;;;;;8.00;4.53;;;7.80;96.70;;;;;;5003264;28;20153;-73
2022/12/19 02:35:54;;;;;;;6.28;5.05;;;7.90;96.70;;;;;;5045507;28;20059;-73
2022/12/19 02:38:29;;;;;;;8.38;4.88;;;7.80;96.70;;;;;;5072549;28;20056;-73
2022/12/19 02:41:02;;;;;;;6.30;4.65;;;7.80;96.70;;;;;;5082166;28;20080;-74
2022/12/19 02:43:38;;;;;;;7.43;4.85;;;7.70;96.70;;;;;;5084316;28;21106;-74
2022/12/19 02:46:11;;;;;;;7.50;4.88;;;7.40;96.70;;;;;;5066866;28;20212;-73
2022/12/19 02:48:41;;;;;;;6.85;4.60;;;7.40;96.70;;;;;;5069674;28;20086;-73
2022/12/19 02:51:09;;;;;;;5.85;4.43;;;7.60;96.70;;;;;;5084410;28;20138;-73
2022/12/19 02:53:39;;;;;;;7.38;4.47;;;7.70;96.70;;;;;;5062710;28;20055;-72
2022/12/19 02:56:30;;;;;;;6.95;4.57;;;7.50;96.70;;;;;;5097975;28;20247;-73
2022/12/19 02:59:22;;;;;;;9.10;5.22;;;7.20;96.70;;;;;;5078057;28;20123;-74
2022/12/19 03:01:57;;;;;;;8.80;5.07;;;7.30;96.70;;;;;;5057191;28;20445;-74
2022/12/19 03:04:41;;;;;;;6.63;4.75;;;7.40;96.70;;;;;;5075043;28;20151;-73
2022/12/19 03:07:20;;;;;;;7.15;4.60;;;7.50;96.70;;;;;;5062170;28;20672;-73
2022/12/19 03:09:57;;;;;;;6.85;4.80;;;7.50;96.70;;;;;;5056970;28;20187;-74
2022/12/19 03:12:31;;;;;;;6.90;4.30;;;7.60;96.70;;;;;;5063321;28;20074;-73
2022/12/19 03:15:01;;;;;;;7.03;4.45;;;7.40;96.70;;;;;;5065157;28;20060;-73
2022/12/19 03:17:35;;;;;;;7.47;4.35;;;7.50;96.70;;;;;;5065059;28;20048;-73
2022/12/19 03:20:08;;;;;;;6.70;4.85;;;7.50;96.70;;;;;;5071941;28;20700;-73
2022/12/19 03:22:36;;;;;;;5.65;4.22;;;7.60;96.70;;;;;;5073222;28;20440;-74
2022/12/19 03:25:04;;;;;;;7.63;4.63;;;7.50;96.70;;;;;;5063139;28;20041;-73
2022/12/19 03:27:36;;;;;;;6.13;4.22;;;7.50;96.70;;;;;;5072891;28;20044;-73
2022/12/19 03:30:09;;;;;;;7.25;4.18;;;7.50;96.70;;;;;;5061438;28;20037;-73
2022/12/19 03:32:41;;;;;;;8.00;4.95;;;7.50;96.70;;;;;;5062748;28;20048;-74
2022/12/19 03:35:15;;;;;;;6.38;4.10;;;7.40;96.70;;;;;;5066641;28;20459;-73
2022/12/19 03:37:45;;;;;;;7.13;4.28;;;7.40;96.70;;;;;;5070546;28;20048;-74
2022/12/19 03:40:16;;;;;;;6.93;4.72;;;7.40;96.70;;;;;;5062452;28;20485;-75
2022/12/19 03:45:44;;;;;;;6.78;4.50;;;7.30;96.70;;;;;;5065558;28;20055;-73
2022/12/19 03:48:18;;;;;;;7.72;5.05;;;7.30;96.70;;;;;;5080517;28;20055;-73
2022/12/19 03:50:53;;;;;;;6.43;4.47;;;7.30;96.70;;;;;;5082050;28;20420;-73
2022/12/19 03:53:31;;;;;;;5.53;4.35;;;7.20;96.70;;;;;;5078547;28;20044;-74
2022/12/19 03:56:06;;;;;;;5.05;3.95;;;7.30;96.70;;;;;;5081059;28;20048;-73
2022/12/19 03:58:40;;;;;;;7.33;4.50;;;7.30;96.70;;;;;;5074451;28;20040;-74
2022/12/19 04:01:09;;;;;;;6.85;4.60;;;7.30;96.70;;;;;;5080793;28;20044;-73
2022/12/19 04:03:38;;;;;;;5.43;4.00;;;7.30;96.70;;;;;;5081056;28;20441;-73
2022/12/19 04:06:08;;;;;;;5.95;4.32;;;7.30;96.70;;;;;;5076430;28;20050;-73
2022/12/19 04:08:36;;;;;;;5.50;3.97;;;7.30;96.70;;;;;;5075533;28;20049;-73
2022/12/19 04:11:08;;;;;;;8.18;4.88;;;7.30;96.70;;;;;;5072211;28;20044;-72
2022/12/19 04:13:41;;;;;;;8.15;5.10;;;7.20;96.70;;;;;;5080100;28;20532;-74
2022/12/19 04:16:16;;;;;;;7.30;4.78;;;7.20;96.70;;;;;;5080570;28;20047;-72
2022/12/19 04:18:50;;;;;;;7.05;4.63;;;7.20;96.70;;;;;;5081711;28;20040;-72
2022/12/19 04:21:22;;;;;;;8.57;5.25;;;7.30;96.70;;;;;;5074332;28;20139;-72
2022/12/19 04:23:56;;;;;;;7.38;4.85;;;7.30;96.70;;;;;;5081255;28;20055;-73
2022/12/19 04:26:26;;;;;;;7.93;5.30;;;7.20;96.70;;;;;;5080871;28;20044;-73
2022/12/19 04:28:59;;;;;;;6.63;4.95;;;7.20;96.70;;;;;;5080009;28;20139;-72
2022/12/19 04:31:28;;;;;;;6.70;5.13;;;7.20;96.70;;;;;;5073505;28;20490;-72
2022/12/19 04:33:57;;;;;;;8.15;5.57;;;7.20;96.70;;;;;;5067303;28;20548;-72
2022/12/19 04:36:26;;;;;;;10.07;5.60;;;7.20;96.70;;;;;;5062847;28;20535;-73
2022/12/19 04:38:57;;;;;;;9.27;5.32;;;7.10;96.70;;;;;;5076458;28;20036;-73
2022/12/19 04:41:25;;;;;;;10.35;5.88;;;7.10;96.70;;;;;;5061776;28;20044;-72
2022/12/19 04:43:53;;;;;;;7.40;4.95;;;7.10;96.70;;;;;;5069058;28;20048;-73
2022/12/19 04:46:22;;;;;;;7.43;5.15;;;6.90;96.70;;;;;;5044408;28;20552;-73
2022/12/19 04:48:50;;;;;;;8.27;4.63;;;7.00;96.70;;;;;;5062853;28;20123;-72
2022/12/19 04:51:20;;;;;;;6.38;4.70;;;7.00;96.70;;;;;;5060868;28;20049;-72
2022/12/19 04:53:48;;;;;;;7.10;4.60;;;6.90;96.70;;;;;;5069244;28;20059;-72
2022/12/19 04:56:16;;;;;;;11.43;5.28;;;6.80;96.70;;;;;;5080758;28;20062;-73
2022/12/19 04:58:44;;;;;;;6.18;4.40;;;6.90;96.70;;;;;;5077901;28;20116;-72
2022/12/19 05:01:13;;;;;;;6.47;4.47;;;6.90;96.70;;;;;;5062761;28;20298;-73
2022/12/19 05:03:41;;;;;;;7.32;4.40;;;6.80;96.70;;;;;;5064544;28;20053;-73
2022/12/19 05:06:10;;;;;;;6.10;4.28;;;6.90;96.70;;;;;;5064509;28;20647;-72
2022/12/19 05:08:41;;;;;;;5.70;3.92;;;6.70;96.70;;;;;;5066634;28;20048;-73
2022/12/19 05:11:12;;;;;;;6.93;4.30;;;6.70;96.70;;;;;;5066961;28;20124;-72
2022/12/19 05:13:46;;;;;;;8.60;4.20;;;6.80;96.70;;;;;;5073516;28;20061;-72
2022/12/19 05:16:14;;;;;;;7.47;4.45;;;6.70;96.70;;;;;;5068377;28;20044;-73
2022/12/19 05:18:43;;;;;;;7.18;4.15;;;6.70;96.70;;;;;;5065732;28;20079;-73
2022/12/19 05:21:11;;;;;;;6.10;4.25;;;6.70;96.70;;;;;;5081683;28;20036;-74
2022/12/19 05:23:41;;;;;;;6.03;4.45;;;6.80;96.70;;;;;;5065131;28;20056;-73
2022/12/19 05:26:10;;;;;;;6.57;4.35;;;6.80;96.70;;;;;;5077693;28;20067;-74
2022/12/19 05:28:38;;;;;;;6.10;4.22;;;6.70;96.70;;;;;;5071921;28;20040;-73
2022/12/19 05:31:09;;;;;;;7.40;4.28;;;6.80;96.70;;;;;;5061005;28;20147;-73
2022/12/19 05:33:38;;;;;;;6.97;4.63;;;6.80;96.70;;;;;;5065686;28;20126;-73
2022/12/19 05:36:07;;;;;;;7.03;4.85;;;6.80;96.70;;;;;;5064108;28;20052;-74
2022/12/19 05:38:36;;;;;;;7.45;5.03;;;6.80;96.70;;;;;;5073197;28;20048;-73
2022/12/19 05:41:08;;;;;;;7.68;5.22;;;6.80;96.70;;;;;;5063976;28;20053;-74
2022/12/19 05:43:36;;;;;;;8.18;5.10;;;6.80;96.70;;;;;;5068419;28;20056;-74
2022/12/19 05:46:05;;;;;;;6.28;4.53;;;6.70;96.70;;;;;;5071010;28;20089;-74
2022/12/19 05:48:34;;;;;;;7.82;5.30;;;6.70;96.70;;;;;;5065452;28;20041;-73
2022/12/19 05:51:02;;;;;;;9.48;4.88;;;6.70;96.70;;;;;;5065369;28;20094;-73
2022/12/19 05:53:31;;;;;;;6.88;4.85;;;6.70;96.70;;;;;;5073189;28;20072;-74
2022/12/19 05:56:04;;;;;;;7.38;4.90;;;6.70;96.70;;;;;;5073735;28;20044;-74
2022/12/19 05:58:38;;;;;;;7.10;4.53;;;6.70;96.70;;;;;;5077846;28;20048;-73
2022/12/19 06:01:09;;;;;;;8.10;4.65;;;6.80;96.70;;;;;;5076060;28;20123;-74
2022/12/19 06:03:37;;;;;;;6.72;4.53;;;6.70;96.70;;;;;;5071063;28;20530;-74
2022/12/19 06:06:07;;;;;;;5.75;4.78;;;6.70;96.70;;;;;;5065198;28;20044;-74
2022/12/19 06:08:35;;;;;;;6.47;4.50;;;6.70;96.70;;;;;;5082757;28;20043;-74
2022/12/19 06:11:05;;;;;;;6.30;4.35;;;6.70;96.70;;;;;;5062357;28;20048;-73
2022/12/19 06:13:35;;;;;;;5.57;4.45;;;6.70;96.70;;;;;;5065119;28;20060;-74
2022/12/19 06:16:05;;;;;;;7.57;4.15;;;6.60;96.70;;;;;;5063919;28;20044;-74
2022/12/19 06:18:34;;;;;;;7.72;4.78;;;6.60;96.70;;;;;;5069643;28;20048;-74
2022/12/19 06:21:09;;;;;;;7.68;4.70;;;6.60;96.70;;;;;;5082271;28;20072;-74
2022/12/19 06:23:38;;;;;;;8.82;5.07;;;6.60;96.70;;;;;;5075191;28;20401;-74
2022/12/19 06:26:07;;;;;;;10.93;5.03;;;6.60;96.70;;;;;;5082316;28;20544;-74
2022/12/19 06:28:40;;;;;;;7.10;4.78;;;6.60;96.70;;;;;;5078412;28;20048;-74
2022/12/19 06:31:10;;;;;;;6.72;4.68;;;6.60;96.70;;;;;;5077298;28;20066;-73
2022/12/19 06:33:38;;;;;;;7.47;4.78;;;6.60;96.70;;;;;;5061443;28;20048;-74
2022/12/19 06:36:09;;;;;;;6.07;4.25;;;6.60;96.70;;;;;;5069849;28;20510;-74
2022/12/19 06:38:37;;;;;;;8.07;4.82;;;6.50;96.70;;;;;;5077723;28;20053;-74
2022/12/19 06:43:57;;;;;;;5.63;4.53;;;6.60;96.70;;;;;;5069576;28;20438;-74
2022/12/19 06:46:25;;;;;;;5.85;4.40;;;6.50;96.70;;;;;;5082487;28;20048;-74
2022/12/19 06:48:53;;;;;;;8.05;4.60;;;6.50;96.70;;;;;;5082439;28;20094;-74
2022/12/19 06:51:22;;;;;;;8.23;4.65;;;6.50;96.70;;;;;;5083459;28;20044;-74
2022/12/19 06:53:50;;;;;;;6.72;5.03;;;6.60;96.70;;;;;;5077792;28;20064;-74
2022/12/19 06:56:19;;;;;;;8.02;4.55;;;6.60;96.70;;;;;;5080664;28;20048;-74
2022/12/19 06:58:47;;;;;;;5.55;4.68;;;6.60;96.70;;;;;;5074776;28;20470;-74
2022/12/19 07:01:18;;;;;;;6.25;3.63;;;6.50;96.70;;;;;;5065330;28;20044;-74
2022/12/19 07:03:48;;;;;;;6.72;4.50;;;6.60;96.70;;;;;;5076942;28;20052;-75
2022/12/19 07:06:16;;;;;;;10.70;5.18;;;6.60;96.70;;;;;;5062159;28;20033;-74
2022/12/19 07:08:44;;;;;;;7.28;4.75;;;6.70;96.70;;;;;;5062904;28;20168;-74
2022/12/19 07:11:12;;;;;;;7.85;5.35;;;6.60;96.70;;;;;;5081377;28;20051;-74
2022/12/19 07:13:40;;;;;;;12.35;6.07;;;6.60;96.70;;;;;;5082740;28;20113;-74
2022/12/19 07:16:08;;;;;;;8.85;5.72;;;6.60;96.70;;;;;;5074533;28;20040;-74
2022/12/19 07:18:39;;;;;;;9.90;5.72;;;6.70;96.70;;;;;;5072494;28;20056;-74
2022/12/19 07:21:10;;;;;;;9.98;5.55;;;6.70;96.70;;;;;;5071973;28;20052;-74
2022/12/19 07:23:39;;;;;;;13.93;7.97;;;6.70;96.70;;;;;;5071821;28;20040;-74
2022/12/19 07:26:07;;;;;;;12.57;8.35;;;6.70;96.70;;;;;;5045279;28;20072;-74
2022/12/19 07:28:36;;;;;;;9.93;6.93;;;6.80;96.70;;;;;;5072209;28;20109;-73
2022/12/19 07:31:05;;;;;;;11.07;6.95;;;6.70;96.70;;;;;;5068578;28;20067;-74
2022/12/19 07:33:33;;;;;;;10.07;6.70;;;6.80;96.70;;;;;;5069674;28;20505;-75
2022/12/19 07:36:02;;;;;;;9.13;5.75;;;6.80;96.70;;;;;;5072991;28;20032;-74
2022/12/19 07:38:30;;;;;;;9.40;5.88;;;6.80;96.70;;;;;;5048227;28;20099;-74
2022/12/19 07:41:00;;;;;;;7.43;5.18;;;6.70;96.70;;;;;;5081337;28;20059;-73
2022/12/19 07:43:29;;;;;;;9.63;5.57;;;6.70;96.70;;;;;;5077841;28;20054;-75
2022/12/19 07:45:57;;;;;;;6.18;5.25;;;6.70;96.70;;;;;;5080832;28;20044;-74
2022/12/19 07:48:25;;;;;;;7.47;4.65;;;6.60;96.70;;;;;;5073978;28;20127;-73
2022/12/19 07:50:53;;;;;;;6.47;4.38;;;6.70;96.70;;;;;;5063996;28;20109;-75
2022/12/19 07:53:23;;;;;;;9.10;4.65;;;6.80;96.70;;;;;;5062140;28;20051;-74
2022/12/19 07:55:51;;;;;;;7.47;4.50;;;6.80;96.70;;;;;;5061629;28;20041;-74
2022/12/19 07:58:19;;;;;;;7.65;4.97;;;6.80;96.70;;;;;;5067927;28;20123;-74
2022/12/19 08:00:53;;;;;;;8.23;5.15;;;6.80;96.70;;;;;;5082136;28;20070;-76
2022/12/19 08:03:22;;;;;;;9.07;4.90;;;6.90;96.70;;;;;;5070197;28;20182;-74
2022/12/19 08:05:51;;;;;;;7.20;4.70;;;7.00;96.70;;;;;;5067976;28;20520;-74
2022/12/19 08:08:20;;;;;;;6.80;5.18;;;7.00;96.70;;;;;;5064866;28;20047;-73
2022/12/19 08:10:49;;;;;;;7.22;5.38;;;7.10;96.70;;;;;;5065096;28;20074;-74
2022/12/19 08:13:21;;;;;;;12.43;5.97;;;7.10;96.70;;;;;;5073021;28;20051;-74
2022/12/19 08:15:49;;;;;;;7.55;4.88;;;7.10;96.70;;;;;;5060901;28;20049;-75
2022/12/19 08:18:17;;;;;;;6.80;4.63;;;7.20;96.70;;;;;;5064441;28;20044;-74
2022/12/19 08:20:45;;;;;;;10.00;5.45;;;7.30;96.70;;;;;;5080592;28;20044;-75
2022/12/19 08:23:13;;;;;;;8.65;4.82;;;7.30;96.70;;;;;;5067111;28;20044;-75
2022/12/19 08:25:41;;;;;;;8.27;5.30;;;7.40;96.70;;;;;;5080406;28;20501;-75
2022/12/19 08:28:11;;;;;;;7.13;4.68;;;7.30;96.70;;;;;;5078608;28;20039;-75
2022/12/19 08:30:40;;;;;;;9.27;5.20;;;7.40;96.70;;;;;;5063227;28;20066;-74
2022/12/19 08:33:08;;;;;;;10.18;4.88;;;7.40;96.70;;;;;;5061065;28;20048;-75
2022/12/19 08:35:36;;;;;;;7.72;6.93;;;7.40;96.70;;;;;;5055061;28;20060;-75
2022/12/19 08:38:05;;;;;;;6.55;5.47;;;7.50;96.70;;;;;;5059047;28;20389;-76
2022/12/19 08:40:34;;;;;;;9.88;5.93;;;7.50;96.70;;;;;;5070285;28;20438;-75
2022/12/19 08:43:02;;;;;;;7.40;6.28;;;7.60;96.70;;;;;;5072084;28;20044;-76
2022/12/19 08:45:32;;;;;;;11.77;8.43;;;7.70;96.70;;;;;;5066884;28;20050;-75
2022/12/19 08:48:00;;;;;;;9.50;8.32;;;7.70;96.70;;;;;;5058107;28;20475;-74
2022/12/19 08:50:28;;;;;;;13.55;9.88;;;7.80;96.70;;;;;;5076590;28;20051;-75
2022/12/19 08:52:56;;;;;;;15.00;10.70;;;7.90;96.70;;;;;;5077989;28;20086;-75
2022/12/19 08:55:25;;;;;;;12.70;9.45;;;7.90;96.70;;;;;;5065464;28;20127;-77
2022/12/19 08:57:55;;;;;;;10.65;8.70;;;8.00;96.70;;;;;;5065402;28;20131;-77
2022/12/19 09:00:23;;;;;;;11.73;9.00;;;8.30;96.70;;;;;;5079971;28;20056;-75
2022/12/19 09:02:54;;;;;;;16.48;9.00;;;8.30;96.70;;;;;;5085229;28;20549;-74
2022/12/19 09:05:23;;;;;;;14.43;8.77;;;8.50;96.70;;;;;;5082818;28;20065;-74
2022/12/19 09:08:11;;;;;;;11.05;8.88;;;8.60;96.70;;;;;;5075350;28;20216;-75
2022/12/19 09:10:39;;;;;;;12.82;8.63;;;8.70;96.70;;;;;;5066202;28;20040;-74
2022/12/19 09:13:07;;;;;;;12.05;8.63;;;8.70;96.70;;;;;;5079021;28;20105;-74
2022/12/19 09:15:35;;;;;;;11.20;8.20;;;8.80;96.70;;;;;;5065925;28;20244;-74
2022/12/19 09:18:06;;;;;;;9.73;6.78;;;8.80;96.70;;;;;;5073469;28;20171;-74
2022/12/19 09:20:34;;;;;;;8.25;6.95;;;8.90;96.70;;;;;;5081041;28;20048;-75
2022/12/19 09:23:02;;;;;;;11.50;7.28;;;9.00;96.70;;;;;;5073133;28;20043;-75
2022/12/19 09:25:30;;;;;;;11.02;8.32;;;9.00;96.70;;;;;;5065750;28;20131;-75
2022/12/19 09:27:58;;;;;;;11.70;8.63;;;9.00;96.70;;;;;;5068544;28;20044;-75
2022/12/19 09:30:54;;;;;;;17.08;11.20;;;9.10;96.70;;;;;;5077020;28;20047;-75
2022/12/19 09:33:25;;;;;;;12.27;10.57;;;9.30;96.70;;;;;;5083315;28;20050;-74
2022/12/19 09:35:54;;;;;;;14.90;11.77;;;9.30;96.70;;;;;;5083147;28;20124;-77
2022/12/19 09:38:24;;;;;;;13.95;11.40;;;9.40;96.70;;;;;;5076714;28;20631;-75
2022/12/19 09:41:06;;;;;;;13.77;10.60;;;9.50;96.70;;;;;;5081500;28;20048;-74
2022/12/19 09:43:46;;;;;;;13.02;10.32;;;9.60;96.70;;;;;;5074493;28;20052;-74
2022/12/19 09:46:17;;;;;;;12.52;11.23;;;9.60;96.70;;;;;;5064374;28;20048;-74
2022/12/19 09:48:52;;;;;;;14.55;12.57;;;9.60;96.70;;;;;;5065264;28;20045;-74
2022/12/19 09:51:33;;;;;;;13.23;11.05;;;9.60;96.70;;;;;;5065118;28;20044;-73
2022/12/19 09:54:06;;;;;;;16.40;11.05;;;9.60;96.70;;;;;;5065691;28;20047;-74
2022/12/19 09:56:37;;;;;;;11.80;10.48;;;9.60;96.70;;;;;;5063756;28;20053;-73
2022/12/19 09:59:22;;;;;;;12.65;10.00;;;9.70;96.70;;;;;;5080699;28;20047;-73
2022/12/19 10:02:00;;;;;;;11.80;9.98;;;9.80;96.70;;;;;;5082939;28;20634;-74
2022/12/19 10:04:33;;;;;;;10.13;8.52;;;9.90;96.70;;;;;;5083589;28;20161;-74
2022/12/19 10:07:19;;;;;;;9.82;7.95;;;9.90;96.70;;;;;;5073849;28;20040;-74
2022/12/19 10:10:15;;;;;;;11.65;7.35;;;10.00;96.70;;;;;;5069955;28;20074;-74
2022/12/19 10:13:16;;;;;;;11.40;7.22;;;10.10;96.70;;;;;;5074256;28;20041;-74
2022/12/19 10:15:51;;;;;;;9.45;6.85;;;10.20;96.70;;;;;;5082500;28;20081;-75
2022/12/19 10:18:41;;;;;;;7.65;5.93;;;10.30;96.70;;;;;;5065520;28;20040;-74
2022/12/19 10:21:20;;;;;;;7.60;6.05;;;10.40;96.70;;;;;;5063159;28;20048;-74
2022/12/19 10:24:27;;;;;;;6.75;5.68;;;10.40;96.70;;;;;;5063695;28;20129;-74
2022/12/19 10:27:08;;;;;;;7.78;5.82;;;10.50;96.70;;;;;;5064968;28;20135;-75
2022/12/19 10:30:00;;;;;;;7.82;5.00;;;10.60;96.70;;;;;;5081271;28;20059;-75
2022/12/19 10:32:39;;;;;;;7.68;5.18;;;10.60;96.70;;;;;;5063056;28;20072;-74
2022/12/19 10:35:13;;;;;;;8.93;6.25;;;10.60;96.70;;;;;;5069001;28;20094;-75
2022/12/19 10:37:47;;;;;;;7.32;6.50;;;10.60;96.70;;;;;;5091673;28;20440;-75
2022/12/19 10:40:24;;;;;;;53.90;34.80;;;10.60;96.70;;;;;;5082383;28;20127;-75
2022/12/19 10:42:59;;;;;;;37.00;26.63;;;10.70;96.70;;;;;;5081737;28;20036;-75
2022/12/19 10:45:43;;;;;;;20.17;15.30;;;10.80;96.70;;;;;;5082455;28;20548;-75
2022/12/19 10:48:17;;;;;;;16.70;13.10;;;10.90;96.70;;;;;;5076638;28;20418;-76
2022/12/19 10:50:57;;;;;;;13.90;11.95;;;11.00;96.70;;;;;;5062565;28;20152;-75
2022/12/19 10:53:34;;;;;;;13.93;11.85;;;11.20;96.70;;;;;;5063031;28;20052;-74
2022/12/19 10:56:12;;;;;;;15.77;11.02;;;11.30;96.70;;;;;;5052122;28;20051;-75
2022/12/19 10:58:43;;;;;;;15.27;10.32;;;11.40;96.70;;;;;;5071004;28;20040;-75
2022/12/19 11:01:14;;;;;;;11.25;9.93;;;11.40;96.70;;;;;;5082200;28;20163;-75
2022/12/19 11:03:45;;;;;;;13.10;9.82;;;11.50;96.70;;;;;;5074647;28;20082;-74
2022/12/19 11:06:40;;;;;;;12.23;9.98;;;11.60;96.70;;;;;;5083786;28;20902;-76
2022/12/19 11:09:20;;;;;;;13.00;9.93;;;11.60;96.70;;;;;;5081737;28;20155;-74
2022/12/19 11:11:54;;;;;;;9.93;8.93;;;11.50;96.70;;;;;;5075317;28;20433;-76
2022/12/19 11:14:50;;;;;;;9.10;8.20;;;11.50;96.70;;;;;;5063270;28;20151;-74
2022/12/19 11:17:38;;;;;;;9.88;8.48;;;11.60;96.70;;;;;;5074121;28;20044;-76
2022/12/19 11:20:26;;;;;;;7.28;6.25;;;11.60;96.70;;;;;;5082953;28;20793;-76
2022/12/19 11:23:15;;;;;;;7.00;5.07;;;11.60;96.70;;;;;;5080441;28;20044;-74
2022/12/19 11:26:06;;;;;;;6.88;4.97;;;11.60;96.70;;;;;;5066738;28;20041;-74
2022/12/19 11:28:57;;;;;;;6.50;5.18;;;11.60;96.70;;;;;;5069816;28;20071;-74
2022/12/19 11:31:46;;;;;;;8.57;5.63;;;11.70;96.70;;;;;;5063463;28;20041;-77
2022/12/19 11:34:49;;;;;;;6.78;5.35;;;11.70;96.70;;;;;;5061519;28;20954;-75
2022/12/19 11:37:21;;;;;;;7.80;6.63;;;11.70;96.70;;;;;;5078280;28;20056;-74
2022/12/19 11:39:54;;;;;;;10.07;7.13;;;11.60;96.70;;;;;;5065024;28;20635;-75
2022/12/19 11:42:28;;;;;;;11.07;7.70;;;11.60;96.70;;;;;;5066351;28;20049;-75
2022/12/19 11:45:05;;;;;;;9.45;7.05;;;11.50;96.70;;;;;;5081648;28;20043;-74
2022/12/19 11:47:39;;;;;;;10.23;7.55;;;11.60;96.70;;;;;;5075372;28;20059;-75
2022/12/19 11:50:14;;;;;;;10.13;7.40;;;11.60;96.70;;;;;;5060870;28;20127;-74
2022/12/19 11:52:49;;;;;;;9.73;7.60;;;11.60;96.70;;;;;;5061929;28;20052;-74
2022/12/19 11:55:43;;;;;;;8.27;7.13;;;11.80;96.70;;;;;;5068750;28;20129;-74
2022/12/19 11:58:13;;;;;;;9.50;7.43;;;11.90;96.70;;;;;;5063644;28;20052;-76
2022/12/19 12:00:50;;;;;;;9.63;7.35;;;12.00;96.70;;;;;;5061308;28;20621;-74
2022/12/19 12:03:41;;;;;;;9.50;7.40;;;12.20;96.70;;;;;;5069162;28;20044;-74
2022/12/19 12:06:32;;;;;;;11.00;7.45;;;12.40;96.70;;;;;;5073723;28;20523;-74
2022/12/19 12:09:10;;;;;;;10.52;6.80;;;12.40;96.70;;;;;;5083095;28;20044;-74
2022/12/19 12:12:06;;;;;;;8.30;6.25;;;12.40;96.70;;;;;;5072557;28;20050;-75
2022/12/19 12:15:27;;;;;;;9.60;6.57;;;12.50;96.70;;;;;;5062605;28;20151;-74
2022/12/19 12:18:37;;;;;;;9.52;6.85;;;12.50;96.70;;;;;;5061402;28;20113;-74
2022/12/19 12:21:32;;;;;;;9.32;6.57;;;12.50;96.70;;;;;;5046960;28;20052;-75
2022/12/19 12:24:37;;;;;;;10.50;6.53;;;12.60;96.70;;;;;;5073124;28;20181;-74
2022/12/19 12:27:41;;;;;;;6.90;5.72;;;12.70;96.70;;;;;;5075450;28;20047;-73
2022/12/19 12:30:41;;;;;;;9.00;6.43;;;12.80;96.70;;;;;;5065489;28;20044;-74
2022/12/19 12:33:52;;;;;;;8.75;7.40;;;13.00;96.70;;;;;;5073298;28;20417;-74
2022/12/19 12:36:51;;;;;;;12.18;7.68;;;13.10;96.70;;;;;;5079939;28;20048;-74
2022/12/19 12:39:49;;;;;;;10.20;6.60;;;13.20;96.70;;;;;;5081819;28;20044;-74
2022/12/19 12:42:31;;;;;;;9.43;7.03;;;13.30;96.70;;;;;;5074304;28;20090;-74
2022/12/19 12:45:03;;;;;;;7.75;6.47;;;13.50;96.70;;;;;;5080814;28;20051;-74
2022/12/19 12:47:35;;;;;;;8.00;6.53;;;13.60;96.70;;;;;;5074871;28;20502;-74
2022/12/19 12:50:06;;;;;;;7.43;6.30;;;13.70;96.70;;;;;;5043695;28;20502;-74
2022/12/19 12:52:36;;;;;;;8.13;6.88;;;13.70;96.70;;;;;;5044794;28;20059;-74
2022/12/19 12:55:14;;;;;;;10.20;8.02;;;13.90;96.70;;;;;;5062701;28;20131;-74
2022/12/19 12:57:43;;;;;;;10.73;8.48;;;13.90;96.70;;;;;;5060667;28;20045;-75
2022/12/19 13:00:25;;;;;;;10.48;8.10;;;13.90;96.70;;;;;;5063240;28;20761;-73
2022/12/19 13:03:03;;;;;;;8.77;6.40;;;13.90;96.70;;;;;;5065210;28;20048;-74
2022/12/19 13:05:50;;;;;;;7.75;5.50;;;13.90;96.70;;;;;;5080344;28;20068;-74
2022/12/19 13:08:44;;;;;;;9.57;5.28;;;13.70;96.70;;;;;;5081210;28;20047;-73
2022/12/19 13:14:44;;;;;;;7.53;4.82;;;13.50;96.70;;;;;;5065492;28;20067;-75
2022/12/19 13:17:18;;;;;;;8.98;5.95;;;13.40;96.70;;;;;;5069839;28;20045;-75
2022/12/19 13:20:35;;;;;;;7.15;5.22;;;13.40;96.70;;;;;;5064236;28;20068;-74
2022/12/19 13:23:18;;;;;;;6.75;4.88;;;13.30;96.70;;;;;;5072933;28;20680;-73
2022/12/19 13:25:50;;;;;;;7.15;5.15;;;13.20;96.70;;;;;;5083836;28;20179;-73
2022/12/19 13:28:48;;;;;;;7.75;5.85;;;13.20;96.70;;;;;;5074000;28;20045;-73
2022/12/19 13:31:19;;;;;;;7.00;5.00;;;13.10;96.70;;;;;;4993563;28;20052;-73
2022/12/19 13:34:18;;;;;;;6.43;4.45;;;13.00;96.70;;;;;;4971152;28;20053;-72
2022/12/19 13:36:53;;;;;;;6.28;4.00;;;12.90;96.70;;;;;;4993934;28;20060;-73